HOURLY OBS INDEX

061

Hunter

CESSNOCK AIRPORT AWS

Site: 061260
Alt: 61.0m
30km SSE of SINGLETON


  Time     Wind        Temp  DP   Baro     Rain since   Rain past  Vis(m), Cloud(base in m), Weather
  local        km/h                         9am  last   hr   10m    
Wed 04:00  SSW 17/ 24  11.4  9.3  1024.7   20.6   0.0   0.0   0.0   ----- 
Wed 04:30  SSW 13/ 24  11.3  9.4  1024.9   20.6   0.0   0.0   0.0   ----- 
Wed 05:00  SSW 17/ 24  11.6  9.5  1025.2   20.6   0.0   0.0   0.0   ----- 
Wed 05:30    S 17/ 22  11.8  9.9  1025.6   20.6   0.0   0.0   0.0   ----- 
Wed 06:00  SSW 11/ 17  11.5  9.8  1025.6   20.6   0.0   0.0   0.0   ----- 
Wed 06:30  SSW 11/ 17  11.5  9.2  1025.9   20.6   0.0   0.0   0.0   ----- 
Wed 07:00  SSW  9/ 15  11.1  8.5  1026.2   20.6   0.0   0.0   0.0   ----- 
Wed 07:30  SSW 11/ 15  11.0  8.6  1026.5   20.6   0.0   0.0   0.0   ----- 
Wed 08:00  SSW 11/ 15  12.7  9.7  1026.6   20.6   0.0   0.0   0.0   ----- 
Wed 08:30  SSW 13/ 17  12.9  9.4  1026.9   20.6   0.0   0.0   0.0   ----- 
Wed 09:00  SSW  7/ 11  14.1 10.5  1026.8   20.6   0.0   0.0   0.0   ----- 
Wed 09:30  SSW 15/ 20  14.5 10.1  1026.4    0.0   0.0   0.0   0.0   ----- 
Wed 09:30  SSW 15/ 20  14.5 10.1  1026.4    0.0   0.0  ----   0.0   ----- 

COORANBONG (LAKE MACQUARIE AWS)

Site: 061412
Alt: 6.0m
35km WSW of NEWCASTLE


  Time     Wind        Temp  DP   Baro     Rain since   Rain past  Vis(m), Cloud(base in m), Weather
  local        km/h                         9am  last   hr   10m    
Wed 04:00   SW  6/ 11  11.5 10.2  1025.6   34.6   0.0   0.0   0.0   ----- 
Wed 04:30  SSW  6/ 15  11.7 10.6  1025.8   34.8   0.2   0.2   0.2   ----- 
Wed 05:00  SSW  2/  7  11.7 10.8  1026.4   35.8   1.0   1.2   0.8   ----- 
Wed 05:30   SW  4/  9  11.7 10.8  1026.4   36.6   0.8   1.8   0.4   ----- 
Wed 06:00   SW  6/ 11  11.5 10.4  1026.6   36.8   0.2   1.0   0.0   ----- 
Wed 06:30   SW  6/  9  11.1  9.9  1026.6   36.8   0.0   0.2   0.0   ----- 
Wed 07:00   SW  4/ 11  11.0  9.8  1026.7   36.8   0.0   0.0   0.0   ----- 
Wed 07:30   SW  2/  6  10.8  9.6  1026.9   36.8   0.0   0.0   0.0   ----- 
Wed 08:00   SW  2/  6  11.1 10.2  1027.0   36.8   0.0   0.0   0.0   ----- 
Wed 08:30  SSW  4/  7  12.6 10.8  1027.5   36.8   0.0   0.0   0.0   ----- 
Wed 09:00   SW  4/  9  14.2 11.2  1027.3   36.8   0.0   0.0   0.0   ----- 
Wed 09:30   SW  6/  7  14.9 10.9  1027.3    0.0   0.0   0.0   0.0   ----- 
Wed 09:30   SW  6/  7  14.9 10.9  1027.3    0.0   0.0  ----   0.0   ----- 

GOSFORD AWS

Site: 061425
Alt: 7.0m
km of


  Time     Wind        Temp  DP   Baro     Rain since   Rain past  Vis(m), Cloud(base in m), Weather
  local        km/h                         9am  last   hr   10m    
Wed 04:00   SW 11/ 20  11.8 11.0  ------   58.6   0.8   2.6   0.4   ----- 
Wed 04:30  WSW  9/ 19  11.8 11.0  ------   60.0   1.4   2.2   0.0   ----- 
Wed 05:00   SW 15/ 24  12.1 10.8  ------   60.6   0.6   2.0   0.2   ----- 
Wed 05:30  SSW 13/ 22  12.0 10.6  ------   60.6   0.0   0.6   0.0   ----- 
Wed 06:00    S  2/  6  12.0 10.6  ------   60.6   0.0   0.0   0.0   ----- 
Wed 06:30  WSW  2/  4  11.4 10.5  ------   60.8   0.2   0.2   0.0   ----- 
Wed 07:00    W  4/  7  10.9 10.3  ------   61.0   0.2   0.4   0.0   ----- 
Wed 07:30  WSW  6/ 11  11.4 10.9  ------   61.0   0.0   0.2   0.0   ----- 
Wed 08:00    W  4/  6  11.9 11.0  ------   61.0   0.0   0.0   0.0   ----- 
Wed 08:30  WSW  7/ 13  12.9 11.0  ------   61.0   0.0   0.0   0.0   ----- 
Wed 09:00    W  6/  9  13.6 11.1  ------   61.0   0.0   0.0   0.0   ----- 
Wed 09:30  WSW  9/ 15  14.0 11.2  ------    0.0   0.0   0.0   0.0   ----- 
Wed 09:30  WSW  9/ 15  14.0 11.2  ------    0.0   0.0  ----   0.0   ----- 

MAITLAND AIRPORT AWS

Site: 061428
Alt: 27.5m
37km NW of NEWCASTLE


  Time     Wind        Temp  DP   Baro     Rain since   Rain past  Vis(m), Cloud(base in m), Weather
  local        km/h                         9am  last   hr   10m    
Wed 04:00    W  9/ 15  10.4 10.2  1024.9   24.6   0.0   0.0   0.0   10000|SC1080 SC1740 BR2220 
Wed 04:30  WSW 13/ 17  10.8 10.6  1025.1   24.8   0.2   0.2   0.2   10000|BR1950 
Wed 05:00   SW 15/ 22  11.1 10.9  1025.2   24.8   0.0   0.2   0.0   10000|SC1980 SC2310 
Wed 05:30  SSW 17/ 22  11.4 11.1  1025.4   24.8   0.0   0.0   0.0   10000|BR2130 
Wed 06:00  SSW 17/ 22  11.7 11.4  1025.6   24.8   0.0   0.0   0.0   10000|BR1980 OC2250 
Wed 06:30  SSW  9/ 13  11.4 11.2  1026.1   24.8   0.0   0.0   0.0   10000|BR2010 BR2370 
Wed 07:00  SSW  7/ 13  11.1 10.9  1026.4   24.8   0.0   0.0   0.0   10000|SC2190 
Wed 07:30   SW 11/ 13  11.8 10.9  1026.6   24.8   0.0   0.0   0.0   10000|SC1980 
Wed 08:00    W 11/ 15  12.3 10.9  1026.9   24.8   0.0   0.0   0.0   10000 
Wed 08:30    W 13/ 17  12.7 11.6  1027.1   24.8   0.0   0.0   0.0   10000|BR1950 
Wed 09:00    W 11/ 15  13.3 12.0  1026.9   24.8   0.0   0.0   0.0   10000|SC1890 
Wed 09:30    W  9/ 11  14.4 12.1  1026.8    0.0   0.0   0.0   0.0   10000 
Wed 09:30    W  9/ 11  14.4 12.1  1026.8    0.0   0.0  ----   0.0   10000 

MANGROVE MOUNTAIN AWS

Site: 061375
Alt: 305.0m
19km NW of GOSFORD


  Time     Wind        Temp  DP   Baro     Rain since   Rain past  Vis(m), Cloud(base in m), Weather
  local        km/h                         9am  last   hr   10m    
Wed 04:00   SW  6/ 15   9.5  9.5  ------   35.2   2.6   3.0   0.6   ----- 
Wed 04:30    S  7/ 15   9.7  9.7  ------   35.6   0.4   3.0   0.2   ----- 
Wed 05:00    S  7/ 15   9.7  9.7  ------   35.8   0.2   0.6   0.0   ----- 
Wed 05:30    S  7/ 13   9.4  9.4  ------   35.8   0.0   0.2   0.0   ----- 
Wed 06:00    S  6/ 11   9.2  9.2  ------   35.8   0.0   0.0   0.0   ----- 
Wed 06:30  SSE  4/  7   8.9  8.9  ------   35.8   0.0   0.0   0.0   ----- 
Wed 07:00  SSW  2/  4   8.8  8.8  ------   35.8   0.0   0.0   0.0   ----- 
Wed 07:30  SSW  4/  9   9.6  9.6  ------   36.0   0.2   0.2   0.0   ----- 
Wed 08:00    W  6/  7   9.6  9.6  ------   36.0   0.0   0.2   0.0   ----- 
Wed 08:30    W  6/ 11   9.7  9.7  ------   36.0   0.0   0.0   0.0   ----- 
Wed 09:00  WSW  4/  7   9.7  9.7  ------   36.0   0.0   0.0   0.0   ----- 
Wed 09:30    W  6/  9  10.7 10.7  ------    0.0   0.0   0.0   0.0   ----- 
Wed 09:30    W  6/  9  10.7 10.7  ------    0.0   0.0  ----   0.0   ----- 

MERRIWA (ROSCOMMON)

Site: 061287
Alt: 375.0m
68km W of MUSWELLBROOK


  Time     Wind        Temp  DP   Baro     Rain since   Rain past  Vis(m), Cloud(base in m), Weather
  local        km/h                         9am  last   hr   10m    
Wed 04:00  WSW  6/  7   4.8  3.0  1025.1    0.0   0.0   0.0   0.0   -----|SC1290 
Wed 04:30  ESE  7/ 13   3.6  2.1  1025.2    0.0   0.0   0.0   0.0   ----- 
Wed 05:00    E  6/  9   2.9  1.6  1025.3    0.0   0.0   0.0   0.0   ----- 
Wed 05:30    C  0/  0   3.3  2.6  1025.4    0.0   0.0   0.0   0.0   ----- 
Wed 06:00    N  6/  7   3.7  3.0  1025.9    0.0   0.0   0.0   0.0   -----|SC 780 
Wed 06:30  ENE  7/  9   5.1  4.2  1026.3    0.0   0.0   0.0   0.0   ----- 
Wed 07:00    E  7/ 11   5.4  4.8  1026.6    0.0   0.0   0.0   0.0   ----- 
Wed 07:30  NNE  9/  9   4.8  3.8  1027.0    0.0   0.0   0.0   0.0   ----- 
Wed 08:00    E  9/ 13   8.6  7.7  1027.0    0.0   0.0   0.0   0.0   ----- 
Wed 08:30   NE  9/ 11  10.0  7.1  1026.9    0.0   0.0   0.0   0.0   ----- 
Wed 09:00    E  7/ 11  11.2  6.9  1027.1    0.0   0.0   0.0   0.0   ----- 
Wed 09:30    E 20/ 28  12.6  7.3  1026.9    0.0   0.0   0.0   0.0   ----- 
Wed 09:30    E 20/ 28  12.6  7.3  1026.9    0.0   0.0  ----   0.0   ----- 

MURRURUNDI GAP AWS

Site: 061392
Alt: 729.4m
59km N of MUSWELLBROOK


  Time     Wind        Temp  DP   Baro     Rain since   Rain past  Vis(m), Cloud(base in m), Weather
  local        km/h                         9am  last   hr   10m    
Wed 04:00   SE 39/ 58   7.6  7.5  1023.5    2.8   0.0   0.0   0.0    7000|SC 120 BR 270 OC 360 
Wed 04:30   SE 39/ 52   7.6  7.5  1023.3    2.8   0.0   0.0   0.0   10000|BR 180 OC 330 OC 390 
Wed 04:34   SE 43/ 61   7.8  7.7  1023.1    2.8   0.0  ----   0.0   10000|BR 180 OC 330 
Wed 04:39   SE 46/ 61   7.6  7.5  1023.1    2.8   0.0  ----   0.0    7000|BR 180 OC 330 
Wed 05:00   SE 39/ 48   7.4  7.3  1023.1    2.8   0.0   0.0   0.0    7000|OC 150 OC 270 
Wed 05:26   SE 41/ 52   7.6  7.5  1023.2    3.0   0.2  ----   0.2    8000|SC 120 BR 210 OC 390 
Wed 05:27   SE 41/ 52   7.5  7.4  1023.3    3.0   0.0  ----   0.2    7000|SC 120 BR 210 OC 390 
Wed 05:30   SE 41/ 56   7.5  7.4  1023.1    3.0   0.0   0.2   0.0    5000|SC 150 BR 270 OC 390 
Wed 05:35   SE 43/ 61   7.7  7.6  1022.9    3.0   0.0  ----   0.0    6000|BR 180 OC 330 
Wed 05:48   SE 50/ 69   7.6  7.5  1022.9    3.0   0.0  ----   0.0   10000|BR 180 OC 330 OC 630 
Wed 06:00   SE 52/ 65   7.6  7.5  1022.9    3.0   0.0   0.2   0.0   10000|SC 180 BR 270 OC 330 
Wed 06:03   SE 50/ 67   7.6  7.5  1023.2    3.0   0.0  ----   0.0    7000|SC 150 BR 270 OC 390 
Wed 06:04   SE 48/ 67   7.6  7.5  1023.2    3.0   0.0  ----   0.0    6000|BR 180 OC 330 OC 570 
Wed 06:21   SE 52/ 67   7.7  7.4  1023.4    3.0   0.0  ----   0.0   10000|SC 150 BR 240 BR 390 
Wed 06:26   SE 54/ 67   7.6  7.5  1023.4    3.0   0.0  ----   0.0    7000|BR 240 BR 390 OC 510 
Wed 06:30   SE 54/ 69   7.7  7.6  1023.4    3.0   0.0   0.0   0.0    6000|SC 150 BR 240 BR 390 
Wed 06:44   SE 52/ 65   7.8  7.4  1023.6    3.0   0.0  ----   0.0   10000|SC 180 BR 330 BR 540 
Wed 06:49   SE 52/ 65   7.6  7.3  1023.6    3.0   0.0  ----   0.0    7000|SC 180 BR 330 BR 540 
Wed 07:00   SE 48/ 65   7.6  7.5  1023.8    3.0   0.0   0.0   0.0    9000|SC 180 BR 330 BR 450 
Wed 07:04   SE 48/ 65   7.6  7.5  1023.9    3.0   0.0  ----   0.0    8000|SC 180 BR 390 BR 540 
Wed 07:06   SE 48/ 63   7.6  7.5  1023.9    3.0   0.0  ----   0.0    7000|SC 180 BR 330 BR 540 
Wed 07:17   SE 50/ 67   7.7  7.6  1024.1    3.0   0.0  ----   0.0   10000|BR 180 BR 330 OC 480 
Wed 07:27   SE 50/ 70   7.6  7.5  1023.8    3.0   0.0  ----   0.0   10000|SC 180 BR 270 BR 390 
Wed 07:30   SE 54/ 76   7.8  7.4  1023.7    3.0   0.0   0.0   0.0   10000|SC 180 BR 360 OC 600 
Wed 07:49   SE 54/ 74   7.8  6.9  1023.9    3.2   0.2  ----   0.0   10000|SC 180 SC 300 BR 480 
Wed 08:00   SE 54/ 69   7.7  7.3  1024.1    3.2   0.0   0.2   0.0   10000|SC 300 BR 480 BR 660 
Wed 08:09   SE 50/ 67   7.7  7.4  1024.3    3.2   0.0  ----   0.0   10000|SC 180 BR 330 BR 480 
Wed 08:30   SE 50/ 65   8.1  7.3  1024.4    3.2   0.0   0.2   0.0   10000|SC 180 BR 330 OC 540 
Wed 08:35   SE 52/ 74   8.2  7.3  1024.2    3.2   0.0  ----   0.0   10000|SC 240 BR 390 BR 480 
Wed 09:00   SE 45/ 59   8.5  7.0  1024.8    3.2   0.0   0.0   0.0   10000|SC 330 BR 510 OC 690 
Wed 09:02   SE 46/ 70   8.5  6.8  1024.4    0.0   0.0  ----   0.0   10000|SC 330 BR 510 OC 690 
Wed 09:06   SE 50/ 76   8.7  6.8  1024.3    0.0   0.0  ----   0.0   10000|SC 330 SC 450 BR 630 
Wed 09:30   SE 46/ 65   8.7  6.8  1024.8    0.0   0.0   0.0   0.0   10000|SC 390 BR 690 BR 780 
Wed 09:30   SE 46/ 65   8.7  6.8  1024.8    0.0   0.0  ----   0.0   10000|SC 390 BR 690 BR 780 

NEWCASTLE NOBBYS SIGNAL STATION AWS

Site: 061055
Alt: 33.0m
2km NE of NEWCASTLE


  Time     Wind        Temp  DP   Baro     Rain since   Rain past  Vis(m), Cloud(base in m), Weather
  local        km/h                         9am  last   hr   10m    
Wed 04:00  WSW 15/ 30  12.9 11.6  ------   53.4   0.0   0.0   0.0   ----- 
Wed 04:30   SW 22/ 37  12.7 10.9  ------   53.4   0.0   0.0   0.0   ----- 
Wed 05:00   SW 19/ 30  12.6 11.0  ------   53.4   0.0   0.0   0.0   ----- 
Wed 05:30   SW 24/ 41  12.7 11.3  ------   53.4   0.0   0.0   0.0   ----- 
Wed 06:00   SW 22/ 33  12.4 11.1  ------   53.4   0.0   0.0   0.0   ----- 
Wed 06:30   SW 26/ 39  13.3 12.0  ------   53.4   0.0   0.0   0.0   ----- 
Wed 06:52    S 37/ 46  14.8 13.2  ------   53.4   0.0  ----   0.0   ----- 
Wed 07:00    S 41/ 50  15.6 12.0  ------   53.4   0.0   0.0   0.0   ----- 
Wed 07:28  SSW 22/ 45  16.2 10.1  ------   53.4   0.0  ----   0.0   ----- 
Wed 07:30  SSW 19/ 45  16.1 10.4  ------   53.4   0.0   0.0   0.0   ----- 
Wed 07:42    S 28/ 50  15.9 11.9  ------   53.4   0.0  ----   0.0   ----- 
Wed 08:00    S 41/ 48  16.2 10.1  ------   53.4   0.0   0.0   0.0   ----- 
Wed 08:30    S 35/ 45  16.5  9.2  ------   53.4   0.0   0.0   0.0   ----- 
Wed 09:00  SSE 35/ 43  16.9  9.8  ------   53.6   0.2   0.2   0.0   ----- 
Wed 09:30    S 35/ 43  16.9 10.3  ------    0.0   0.0   0.0   0.0   ----- 
Wed 09:30    S 35/ 43  16.9 10.3  ------    0.0   0.0  ----   0.0   ----- 

NORAH HEAD AWS

Site: 061366
Alt: 18.8m
27km NE of GOSFORD


  Time     Wind        Temp  DP   Baro     Rain since   Rain past  Vis(m), Cloud(base in m), Weather
  local        km/h                         9am  last   hr   10m    
Wed 04:00   SW 17/ 35  13.1 12.8  1025.0   63.8   0.0   0.0   0.0   ----- 
Wed 04:30    W 13/ 20  12.1 11.8  1025.6   73.0   9.2   9.2   5.8   ----- 
Wed 05:00   SW 22/ 33  12.6 12.4  1025.5   74.0   1.0  10.2   0.2   ----- 
Wed 05:30   SW 22/ 45  13.4 13.4  1025.9   74.6   0.6   1.6   0.6   ----- 
Wed 06:00   SW 30/ 41  13.5 13.0  1025.9   75.0   0.4   1.0   0.2   ----- 
Wed 06:30  SSW 33/ 46  14.2 13.4  1025.9   75.0   0.0   0.4   0.0   ----- 
Wed 07:00    S 22/ 32  14.5 13.4  1026.2   75.0   0.0   0.0   0.0   ----- 
Wed 07:30    S 39/ 48  15.4 11.2  1025.8   75.0   0.0   0.0   0.0   ----- 
Wed 08:00    S 46/ 56  15.5 10.5  1025.8   75.2   0.2   0.2   0.0   ----- 
Wed 08:30    S 45/ 52  16.3 10.4  1026.3   75.2   0.0   0.2   0.0   ----- 
Wed 09:00    S 37/ 45  16.5 10.1  1026.4   75.2   0.0   0.0   0.0   ----- 
Wed 09:30    S 37/ 43  16.7 10.1  1026.5    0.0   0.0   0.0   0.0   ----- 
Wed 09:30    S 37/ 43  16.7 10.1  1026.5    0.0   0.0  ----   0.0   ----- 

PATERSON (TOCAL AWS)

Site: 061250
Alt: 30.0m
38km NNW of NEWCASTLE


  Time     Wind        Temp  DP   Baro     Rain since   Rain past  Vis(m), Cloud(base in m), Weather
  local        km/h                         9am  last   hr   10m    
Wed 04:00  WNW  6/  9  10.5 10.3  ------   37.4   0.0   1.0   0.0   ----- 
Wed 04:30    W  9/ 13  10.9 10.3  ------   37.4   0.0   0.0   0.0   ----- 
Wed 05:00  WSW  6/  9  11.0 10.2  ------   37.4   0.0   0.0   0.0   ----- 
Wed 05:30  WSW  9/ 15  10.5  9.9  ------   37.4   0.0   0.0   0.0   ----- 
Wed 06:00    C  0/  4  10.7  9.9  ------   37.4   0.0   0.0   0.0   ----- 
Wed 06:30    S  4/  9  10.9 10.1  ------   37.4   0.0   0.0   0.0   ----- 
Wed 07:00    W  4/  7  10.8 10.2  ------   37.4   0.0   0.0   0.0   ----- 
Wed 07:30    C  0/  7  10.9 10.3  ------   37.4   0.0   0.0   0.0   ----- 
Wed 08:00    C  0/  0  11.6 10.8  ------   37.4   0.0   0.0   0.0   ----- 
Wed 08:30  NNW  7/  9  11.6 10.6  ------   37.4   0.0   0.0   0.0   ----- 
Wed 09:00    N  6/  7  13.5 10.6  ------   37.4   0.0   0.0   0.0   ----- 
Wed 09:30    W  9/ 13  14.5 10.5  ------    0.0   0.0   0.0   0.0   ----- 
Wed 09:30    W  9/ 13  14.5 10.5  ------    0.0   0.0  ----   0.0   ----- 

SCONE AIRPORT AWS

Site: 061363
Alt: 221.4m
26km NNW of MUSWELLBROOK


  Time     Wind        Temp  DP   Baro     Rain since   Rain past  Vis(m), Cloud(base in m), Weather
  local        km/h                         9am  last   hr   10m    
Wed 04:00    C  0/  0   9.6  9.5  1025.0    3.8   0.0   0.2   0.0   10000|OC 510 
Wed 04:30  NNE  2/  7   9.8  9.5  1025.0    3.8   0.0   0.0   0.0    8000|OC 510 
Wed 04:49   NE  2/  6   9.8  9.7  1025.1    4.0   0.2  ----   0.2    5000|OC 450 
Wed 04:59  NNE  6/  7   9.7  9.6  1025.1    4.0   0.0  ----   0.0   10000|OC 450 
Wed 05:00  NNE  6/  7   9.8  9.7  1025.1    4.0   0.0   0.2   0.0   10000|OC 450 
Wed 05:30    C  0/  0   9.8  9.7  1025.3    4.0   0.0   0.2   0.0   10000|BR 390 OC 540 
Wed 06:00    E  4/  6  10.0  9.9  1025.6    4.0   0.0   0.0   0.0   10000|OC 330 
Wed 06:30    C  0/  4  10.0  9.5  1026.1    4.0   0.0   0.0   0.0   10000|BR 330 OC 480 
Wed 07:00    C  0/  0   9.9  9.4  1026.6    4.0   0.0   0.0   0.0   10000|OC 390 
Wed 07:30    S  2/  6  10.3  9.7  1026.8    4.0   0.0   0.0   0.0   10000|OC 390 
Wed 08:00    S 11/ 17  10.6  9.7  1026.9    4.0   0.0   0.0   0.0   10000|BR 570 OC 990 
Wed 08:29    S 11/ 17  11.1 10.0  1026.9    4.0   0.0  ----   0.0   10000|SC 630 SC 990 OC1620 
Wed 08:30    S 13/ 17  11.2 10.1  1026.9    4.0   0.0   0.0   0.0   10000|SC 630 SC 720 SC 990 
Wed 09:00    S 17/ 20  11.8 10.0  1027.0    4.0   0.0   0.0   0.0   10000|BR1320 
Wed 09:20  SSE 13/ 19  12.5 10.0  1026.9    0.0   0.0  ----   0.0   10000|SC 360 BR 660 BR1320 
Wed 09:30  SSE 15/ 20  12.8 10.2  1026.9    0.0   0.0   0.0   0.0   10000|BR 360 
Wed 09:30  SSE 15/ 20  12.8 10.2  1026.9    0.0   0.0  ----   0.0   10000|BR 360 

SINGLETON (DEFENCE)

Site: 061430
Alt: 125.0m
km of


  Time     Wind        Temp  DP   Baro     Rain since   Rain past  Vis(m), Cloud(base in m), Weather
  local        km/h                         9am  last   hr   10m    
Wed 04:00  SSW 17/ 24  10.9  9.7  ------   16.8   0.0   0.6   0.0   ----- 
Wed 04:30    S 17/ 26  11.0  9.4  ------   16.8   0.0   0.0   0.0   ----- 
Wed 05:00    S 19/ 30  11.3  9.2  ------   16.8   0.0   0.0   0.0   ----- 
Wed 05:30    S 26/ 41  11.6  8.8  ------   16.8   0.0   0.0   0.0   ----- 
Wed 06:00    S 22/ 37  11.7  8.7  ------   16.8   0.0   0.0   0.0   ----- 
Wed 06:30    S 20/ 33  11.5  8.7  ------   16.8   0.0   0.0   0.0   ----- 
Wed 07:00    S 17/ 28  11.5  8.5  ------   16.8   0.0   0.0   0.0   ----- 
Wed 07:30  SSW 15/ 22  11.4  8.4  ------   16.8   0.0   0.0   0.0   ----- 
Wed 08:00    S 13/ 22  11.6  8.8  ------   16.8   0.0   0.0   0.0   ----- 
Wed 08:30  SSW 13/ 24  12.0  9.2  ------   16.8   0.0   0.0   0.0   ----- 
Wed 09:00    S 15/ 26  12.7  9.5  ------   16.8   0.0   0.0   0.0   ----- 
Wed 09:30  SSW 15/ 22  13.2  9.5  ------    0.0   0.0   0.0   0.0   ----- 
Wed 09:30  SSW 15/ 22  13.2  9.5  ------    0.0   0.0  ----   0.0   ----- 

WILLIAMTOWN RAAF

Site: 061078
Alt: 7.5m
16km NNE of NEWCASTLE


  Time     Wind        Temp  DP   Baro     Rain since   Rain past  Vis(m), Cloud(base in m), Weather
  local        km/h                         9am  last   hr   10m    
Wed 04:00  WNW  7/ 17  11.0 10.7  1024.5   50.6   0.4   0.8   0.4    8000|SC 180 SC 600 BR 990 
Wed 04:05  WNW 13/ 17  11.0 10.7  1024.4   50.6   0.0  ----   0.0   10000|SC 180 BR 660 BR 990 
Wed 04:06  WNW 13/ 17  11.0 10.7  1024.5   50.6   0.0  ----   0.0   10000|SC 180 BR 660 BR 990 
Wed 04:30    W 17/ 19  11.2 10.9  1024.7   50.6   0.0   0.8   0.0   10000|SC 720 SC1020 BR1530 
Wed 05:00  WSW 13/ 19  11.3 10.7  1024.9   50.6   0.0   0.0   0.0   10000|SC 420 SC1530 BR2280 
Wed 05:30  WNW  7/ 11  10.4  9.8  1025.0   50.6   0.0   0.0   0.0   10000|SC 270 
Wed 06:00  SSW 20/ 28  11.6 10.8  1025.5   50.6   0.0   0.0   0.0   10000|SC1680 SC1950 
Wed 06:30   SW 19/ 26  11.6 10.7  1025.8   50.6   0.0   0.0   0.0   10000 
Wed 07:00  WSW 17/ 22  11.8 10.9  1025.8   50.6   0.0   0.0   0.0  *10000|FE 120st SC 600cu FE 600tc|diSh// 
Wed 07:30   SW 17/ 24  12.2 10.9  1026.1   50.6   0.0   0.0   0.0  *10000|SC 600cu SC7500ci 
Wed 08:00  WSW 13/ 17  12.4 11.3  1026.2   50.6   0.0   0.0   0.0  *10000|FE 750cu 
Wed 08:30    W 15/ 20  13.3 11.5  1026.4   50.6   0.0   0.0   0.0  *10000|FE 840cu 
Wed 08:30    W 15/ 20  13.3 11.5  1026.4   50.6   0.0  ----   0.0  *10000|FE 840cu 
Wed 09:00  WSW 15/ 17  13.4 11.6  1026.6   50.6   0.0   0.0   0.0  *10000|FE 750cu 
Wed 09:30  WSW 13/ 26  15.1 11.7  1026.5    0.0   0.0   0.0   0.0  *10000|SC 750cu 
Wed 09:30  WSW 13/ 26  15.1 11.7  1026.5    0.0   0.0  ----   0.0  *10000|SC 750cu